createdAt,value
2023-02-12T00:00:07.036Z,103027.50
2023-02-12T00:02:41.975Z,103028.13
2023-02-12T00:05:08.744Z,103031.88
2023-02-12T00:07:35.332Z,103032.41
2023-02-12T00:10:02.048Z,103040.28
2023-02-12T00:12:28.687Z,103026.00
2023-02-12T00:15:08.330Z,103019.47
2023-02-12T00:17:35.241Z,103023.69
2023-02-12T00:20:01.949Z,103023.31
2023-02-12T00:22:29.573Z,103014.00
2023-02-12T00:24:56.881Z,103023.75
2023-02-12T00:27:24.115Z,103025.69
2023-02-12T00:29:50.879Z,103026.50
2023-02-12T00:32:20.658Z,103027.56
2023-02-12T00:34:47.607Z,103029.34
2023-02-12T00:37:15.972Z,103032.81
2023-02-12T00:39:42.857Z,103033.63
2023-02-12T00:42:11.008Z,103033.44
2023-02-12T00:44:37.577Z,103038.31
2023-02-12T00:47:05.458Z,103036.34
2023-02-12T00:49:35.462Z,103038.75
2023-02-12T00:52:03.567Z,103037.25
2023-02-12T00:54:31.764Z,103042.06
2023-02-12T00:56:59.024Z,103036.88
2023-02-12T00:59:29.798Z,103034.03
2023-02-12T01:01:56.929Z,103035.66
2023-02-12T01:04:24.425Z,103034.94
2023-02-12T01:06:51.200Z,103032.34
2023-02-12T01:09:19.033Z,103044.56
2023-02-12T01:11:47.876Z,103040.41
2023-02-12T01:14:14.474Z,103039.69
2023-02-12T01:16:41.297Z,103043.13
2023-02-12T01:19:07.989Z,103040.84
2023-02-12T01:21:35.271Z,103038.94
2023-02-12T01:24:02.695Z,103042.97
2023-02-12T01:26:31.105Z,103038.97
2023-02-12T01:29:01.477Z,103040.78
2023-02-12T01:31:31.643Z,103037.56
2023-02-12T01:33:59.831Z,103041.31
2023-02-12T01:36:28.997Z,103045.00
2023-02-12T01:38:57.850Z,103048.66
2023-02-12T01:41:32.489Z,103042.06
2023-02-12T01:44:13.735Z,103051.47
2023-02-12T01:46:40.654Z,103051.34
2023-02-12T01:49:14.339Z,103054.22
2023-02-12T01:51:43.114Z,103049.78
2023-02-12T01:54:13.375Z,103048.34
2023-02-12T01:56:42.108Z,103041.56
2023-02-12T01:59:09.067Z,103049.03
2023-02-12T02:01:35.932Z,103055.53
2023-02-12T02:04:07.249Z,103052.38
2023-02-12T02:06:39.711Z,103048.59
2023-02-12T02:09:06.531Z,103046.31
2023-02-12T02:11:51.651Z,103047.56
2023-02-12T02:14:34.057Z,103048.31
2023-02-12T02:17:24.466Z,103050.78
2023-02-12T02:20:00.004Z,103050.91
2023-02-12T02:22:36.099Z,103044.09
2023-02-12T02:25:23.950Z,103050.28
2023-02-12T02:27:50.519Z,103040.81
2023-02-12T02:30:26.129Z,103046.69
2023-02-12T02:33:07.833Z,103038.41
2023-02-12T02:35:43.412Z,103035.97
2023-02-12T02:38:45.491Z,103031.53
2023-02-12T02:41:28.572Z,103027.31
2023-02-12T02:43:56.063Z,103036.88
2023-02-12T02:46:25.488Z,103024.56
2023-02-12T02:49:02.061Z,103018.19
2023-02-12T02:51:41.176Z,103023.56
2023-02-12T02:54:16.443Z,103017.56
2023-02-12T02:56:47.751Z,103016.69
2023-02-12T02:59:24.125Z,103028.94
2023-02-12T03:02:01.673Z,103019.38
2023-02-12T03:04:45.870Z,103017.94
2023-02-12T03:07:41.749Z,103019.53
2023-02-12T03:10:20.549Z,103021.16
2023-02-12T03:13:07.403Z,103021.38
2023-02-12T03:15:52.484Z,103024.53
2023-02-12T03:18:30.654Z,103025.22
2023-02-12T03:21:03.236Z,103026.50
2023-02-12T03:23:55.436Z,103026.03
2023-02-12T03:26:27.387Z,103030.13
2023-02-12T03:28:53.973Z,103022.38
2023-02-12T03:31:38.962Z,103015.69
2023-02-12T03:34:26.880Z,103019.09
2023-02-12T03:36:57.079Z,103020.59
2023-02-12T03:39:45.413Z,103011.50
2023-02-12T03:42:38.268Z,103018.72
2023-02-12T03:45:19.978Z,103028.19
2023-02-12T03:47:51.539Z,103028.06
2023-02-12T03:50:44.234Z,103026.53
2023-02-12T03:53:11.043Z,103025.09
2023-02-12T03:55:42.351Z,103024.19
2023-02-12T03:58:12.562Z,103028.06
2023-02-12T04:00:39.691Z,103031.06
2023-02-12T04:03:07.649Z,103033.75
2023-02-12T04:05:34.279Z,103035.59
2023-02-12T04:08:04.252Z,103034.78
2023-02-12T04:11:01.975Z,103039.38
2023-02-12T04:13:49.964Z,103044.31
2023-02-12T04:16:40.532Z,103045.44
2023-02-12T04:19:12.688Z,103041.66
2023-02-12T04:22:05.420Z,103054.03
2023-02-12T04:24:44.887Z,103053.22
2023-02-12T04:27:39.767Z,103059.69
2023-02-12T04:30:40.615Z,103063.47
2023-02-12T04:33:11.770Z,103063.41
2023-02-12T04:35:51.438Z,103075.44
2023-02-12T04:38:23.885Z,103077.34
2023-02-12T04:40:51.764Z,103066.00
2023-02-12T04:43:36.507Z,103074.53
2023-02-12T04:46:05.646Z,103077.84
2023-02-12T04:48:32.327Z,103079.31
2023-02-12T04:50:58.880Z,103083.72
2023-02-12T04:53:25.474Z,103072.72
2023-02-12T04:55:52.229Z,103072.72
2023-02-12T04:58:19.316Z,103081.72
2023-02-12T05:00:45.853Z,103087.28
2023-02-12T05:03:12.479Z,103081.16
2023-02-12T05:05:39.131Z,103081.31
2023-02-12T05:08:05.798Z,103080.72
2023-02-12T05:10:32.369Z,103086.91
2023-02-12T05:12:59.003Z,103080.50
2023-02-12T05:15:25.584Z,103084.50
2023-02-12T05:17:52.281Z,103082.19
2023-02-12T05:20:19.033Z,103084.06
2023-02-12T05:22:45.661Z,103087.47
2023-02-12T05:25:12.316Z,103082.47
2023-02-12T05:27:38.987Z,103080.59
2023-02-12T05:30:06.243Z,103082.94
2023-02-12T05:32:32.889Z,103081.06
2023-02-12T05:34:59.400Z,103080.38
2023-02-12T05:37:26.299Z,103081.88
2023-02-12T05:39:53.852Z,103076.69
2023-02-12T05:42:20.517Z,103085.56
2023-02-12T05:44:47.077Z,103091.66
2023-02-12T05:47:13.840Z,103086.47
2023-02-12T05:49:40.670Z,103089.56
2023-02-12T05:52:07.371Z,103087.06
2023-02-12T05:54:34.027Z,103086.34
2023-02-12T05:57:00.644Z,103080.59
2023-02-12T05:59:27.245Z,103084.97
2023-02-12T06:01:53.933Z,103088.25
2023-02-12T06:04:26.265Z,103092.28
2023-02-12T06:06:54.035Z,103088.78
2023-02-12T06:09:20.627Z,103079.34
2023-02-12T06:11:47.317Z,103092.66
2023-02-12T06:14:19.334Z,103093.25
2023-02-12T06:16:48.335Z,103097.81
2023-02-12T06:19:15.735Z,103102.81
2023-02-12T06:21:42.583Z,103096.22
2023-02-12T06:24:13.675Z,103096.72
2023-02-12T06:26:40.634Z,103099.41
2023-02-12T06:29:07.332Z,103096.22
2023-02-12T06:31:36.706Z,103092.84
2023-02-12T06:34:06.392Z,103101.84
2023-02-12T06:36:33.180Z,103101.66
2023-02-12T06:39:02.742Z,103101.91
2023-02-12T06:41:29.652Z,103100.16
2023-02-12T06:43:56.293Z,103107.28
2023-02-12T06:46:23.448Z,103104.59
2023-02-12T06:48:54.516Z,103114.78
2023-02-12T06:51:23.960Z,103116.38
2023-02-12T06:53:52.229Z,103118.75
2023-02-12T06:56:20.151Z,103115.59
2023-02-12T06:58:48.397Z,103119.97
2023-02-12T07:01:17.776Z,103127.94
2023-02-12T07:03:48.599Z,103122.16
2023-02-12T07:06:15.476Z,103118.88
2023-02-12T07:08:42.283Z,103115.59
2023-02-12T07:11:09.101Z,103120.47
2023-02-12T07:13:35.966Z,103132.81
2023-02-12T07:16:13.938Z,103128.22
2023-02-12T07:18:40.767Z,103132.41
2023-02-12T07:21:08.548Z,103136.91
2023-02-12T07:23:35.972Z,103141.06
2023-02-12T07:26:09.000Z,103145.56
2023-02-12T07:28:35.812Z,103141.06
2023-02-12T07:31:14.074Z,103148.84
2023-02-12T07:33:41.954Z,103156.63
2023-02-12T07:36:11.499Z,103164.81
2023-02-12T07:38:39.862Z,103158.63
2023-02-12T07:41:14.511Z,103169.09
2023-02-12T07:43:43.462Z,103170.09
2023-02-12T07:46:29.505Z,103166.53
2023-02-12T07:48:58.150Z,103171.88
2023-02-12T07:51:25.431Z,103178.38
2023-02-12T07:53:55.168Z,103178.06
2023-02-12T07:56:24.574Z,103176.25
2023-02-12T07:58:53.369Z,103183.56
2023-02-12T08:01:21.518Z,103177.47
2023-02-12T08:03:49.823Z,103187.25
2023-02-12T08:06:28.562Z,103177.56
2023-02-12T08:08:58.070Z,103181.56
2023-02-12T08:11:25.883Z,103180.38
2023-02-12T08:13:53.146Z,103178.44
2023-02-12T08:16:22.234Z,103188.13
2023-02-12T08:18:49.435Z,103188.97
2023-02-12T08:21:18.361Z,103191.69
2023-02-12T08:23:45.743Z,103184.53
2023-02-12T08:26:13.937Z,103189.22
2023-02-12T08:28:43.367Z,103185.13
2023-02-12T08:31:13.657Z,103190.09
2023-02-12T08:33:40.432Z,103196.84
2023-02-12T08:36:12.663Z,103198.28
2023-02-12T08:38:39.953Z,103204.84
2023-02-12T08:41:09.753Z,103208.31
2023-02-12T08:43:37.235Z,103213.59
2023-02-12T08:46:03.859Z,103213.44
2023-02-12T08:48:30.660Z,103216.03
2023-02-12T08:51:02.857Z,103217.47
2023-02-12T08:53:29.454Z,103222.22
2023-02-12T08:55:56.318Z,103221.44
2023-02-12T08:58:23.017Z,103221.22
2023-02-12T09:00:49.622Z,103207.72
2023-02-12T09:03:16.167Z,103210.47
2023-02-12T09:05:42.806Z,103215.34
2023-02-12T09:08:09.667Z,103213.00
2023-02-12T09:10:41.031Z,103211.41
2023-02-12T09:13:09.053Z,103204.94
2023-02-12T09:15:45.125Z,103215.41
2023-02-12T09:18:13.462Z,103212.75
2023-02-12T09:20:43.033Z,103221.13
2023-02-12T09:23:10.862Z,103222.00
2023-02-12T09:25:43.025Z,103222.53
2023-02-12T09:28:11.268Z,103233.91
2023-02-12T09:30:38.589Z,103233.84
2023-02-12T09:33:06.668Z,103236.19
2023-02-12T09:35:39.554Z,103229.53
2023-02-12T09:38:07.199Z,103234.56
2023-02-12T09:40:46.036Z,103243.09
2023-02-12T09:43:23.724Z,103239.84
2023-02-12T09:46:00.764Z,103245.13
2023-02-12T09:48:54.824Z,103236.19
2023-02-12T09:51:22.259Z,103242.56
2023-02-12T09:53:56.355Z,103241.31
2023-02-12T09:56:26.966Z,103253.16
2023-02-12T09:59:03.077Z,103253.88
2023-02-12T10:01:29.991Z,103249.38
2023-02-12T10:03:56.936Z,103246.00
2023-02-12T10:06:23.501Z,103251.81
2023-02-12T10:09:11.422Z,103256.88
2023-02-12T10:11:53.265Z,103258.09
2023-02-12T10:14:27.654Z,103254.63
2023-02-12T10:17:13.139Z,103260.50
2023-02-12T10:20:04.618Z,103257.28
2023-02-12T10:22:31.280Z,103251.88
2023-02-12T10:25:12.220Z,103251.88
2023-02-12T10:27:54.843Z,103249.69
2023-02-12T10:30:26.670Z,103257.41
2023-02-12T10:33:00.626Z,103253.53
2023-02-12T10:35:27.696Z,103251.84
2023-02-12T10:38:27.114Z,103258.41
2023-02-12T10:40:57.567Z,103260.19
2023-02-12T10:43:24.814Z,103254.34
2023-02-12T10:45:52.379Z,103245.28
2023-02-12T10:48:24.988Z,103248.59
2023-02-12T10:51:06.044Z,103253.88
2023-02-12T10:53:34.028Z,103252.56
2023-02-12T10:56:12.918Z,103244.75
2023-02-12T10:58:43.007Z,103246.22
2023-02-12T11:01:19.180Z,103245.53
2023-02-12T11:03:45.911Z,103244.50
2023-02-12T11:06:16.622Z,103248.44
2023-02-12T11:08:44.062Z,103241.56
2023-02-12T11:11:20.023Z,103242.50
2023-02-12T11:13:54.569Z,103238.50
2023-02-12T11:16:33.586Z,103242.66
2023-02-12T11:19:04.676Z,103239.59
2023-02-12T11:21:32.417Z,103251.19
2023-02-12T11:24:21.591Z,103250.41
2023-02-12T11:26:48.359Z,103241.91
2023-02-12T11:29:24.563Z,103232.19
2023-02-12T11:32:04.941Z,103228.13
2023-02-12T11:34:31.901Z,103230.81
2023-02-12T11:36:58.988Z,103226.34
2023-02-12T11:39:32.468Z,103224.53
2023-02-12T11:42:14.752Z,103216.13
2023-02-12T11:44:48.074Z,103215.41
2023-02-12T11:47:30.198Z,103215.59
2023-02-12T11:50:05.755Z,103209.13
2023-02-12T11:52:35.441Z,103207.72
2023-02-12T11:55:18.324Z,103202.66
2023-02-12T11:57:47.609Z,103207.34
2023-02-12T12:00:17.693Z,103200.97
2023-02-12T12:03:06.827Z,103204.03
2023-02-12T12:05:43.639Z,103198.25
2023-02-12T12:08:33.448Z,103201.22
2023-02-12T12:11:10.884Z,103196.97
2023-02-12T12:13:44.588Z,103196.66
2023-02-12T12:16:49.194Z,103191.31
2023-02-12T12:19:43.061Z,103187.97
2023-02-12T12:22:23.190Z,103179.81
2023-02-12T12:24:49.702Z,103188.41
2023-02-12T12:27:45.097Z,103177.97
2023-02-12T12:30:27.057Z,103176.59
2023-02-12T12:32:56.280Z,103175.41
2023-02-12T12:35:37.477Z,103174.91
2023-02-12T12:38:24.090Z,103172.94
2023-02-12T12:41:12.562Z,103174.38
2023-02-12T12:43:50.143Z,103162.72
2023-02-12T12:46:29.180Z,103160.09
2023-02-12T12:49:18.191Z,103158.78
2023-02-12T12:52:06.561Z,103158.88
2023-02-12T12:54:51.921Z,103151.94
2023-02-12T12:57:39.593Z,103154.16
2023-02-12T13:00:25.264Z,103150.44
2023-02-12T13:02:57.981Z,103150.75
2023-02-12T13:05:59.739Z,103140.97
2023-02-12T13:08:52.071Z,103125.25
2023-02-12T13:11:40.008Z,103131.22
2023-02-12T13:14:30.917Z,103124.56
2023-02-12T13:17:23.404Z,103122.88
2023-02-12T13:20:23.900Z,103128.16
2023-02-12T13:22:50.437Z,103130.03
2023-02-12T13:25:27.626Z,103126.56
2023-02-12T13:27:57.282Z,103125.19
2023-02-12T13:30:25.382Z,103125.19
2023-02-12T13:33:05.913Z,103131.59
2023-02-12T13:35:35.577Z,103119.44
2023-02-12T13:38:03.625Z,103130.31
2023-02-12T13:40:31.085Z,103122.13
2023-02-12T13:43:13.628Z,103115.31
2023-02-12T13:45:52.393Z,103129.16
2023-02-12T13:48:48.304Z,103127.97
2023-02-12T13:51:15.017Z,103125.47
2023-02-12T13:53:47.832Z,103131.56
2023-02-12T13:56:46.017Z,103133.06
2023-02-12T13:59:39.774Z,103128.53
2023-02-12T14:02:12.459Z,103132.09
2023-02-12T14:04:46.060Z,103130.78
2023-02-12T14:07:15.417Z,103126.81
2023-02-12T14:09:46.136Z,103135.19
2023-02-12T14:12:24.934Z,103131.56
2023-02-12T14:15:08.675Z,103128.53
2023-02-12T14:17:35.203Z,103134.25
2023-02-12T14:20:20.858Z,103131.59
2023-02-12T14:22:47.413Z,103126.28
2023-02-12T14:25:13.943Z,103131.97
2023-02-12T14:27:54.991Z,103130.28
2023-02-12T14:30:35.410Z,103138.72
2023-02-12T14:33:08.238Z,103128.88
2023-02-12T14:35:37.604Z,103136.34
2023-02-12T14:38:32.202Z,103132.22
2023-02-12T14:41:34.086Z,103128.88
2023-02-12T14:44:26.813Z,103124.66
2023-02-12T14:46:55.788Z,103119.44
2023-02-12T14:49:34.635Z,103115.41
2023-02-12T14:52:19.888Z,103105.47
2023-02-12T14:54:50.622Z,103110.34
2023-02-12T14:57:26.189Z,103118.31
2023-02-12T14:59:57.039Z,103114.41
2023-02-12T15:02:30.072Z,103114.47
2023-02-12T15:05:02.524Z,103115.59
2023-02-12T15:07:45.982Z,103113.97
2023-02-12T15:10:20.268Z,103112.97
2023-02-12T15:12:55.014Z,103114.88
2023-02-12T15:15:33.718Z,103115.59
2023-02-12T15:18:07.558Z,103117.97
2023-02-12T15:20:41.211Z,103120.09
2023-02-12T15:23:34.824Z,103116.16
2023-02-12T15:26:02.911Z,103119.28
2023-02-12T15:28:36.431Z,103112.19
2023-02-12T15:31:10.600Z,103111.53
2023-02-12T15:33:45.695Z,103104.31
2023-02-12T15:36:17.382Z,103105.53
2023-02-12T15:38:45.746Z,103106.53
2023-02-12T15:41:27.023Z,103111.19
2023-02-12T15:43:54.095Z,103112.16
2023-02-12T15:46:21.124Z,103113.28
2023-02-12T15:48:47.673Z,103114.50
2023-02-12T15:51:25.898Z,103105.47
2023-02-12T15:53:52.939Z,103114.34
2023-02-12T15:56:22.995Z,103112.22
2023-02-12T15:58:52.740Z,103114.41
2023-02-12T16:01:24.780Z,103098.81
2023-02-12T16:04:00.315Z,103105.63
2023-02-12T16:06:29.223Z,103108.81
2023-02-12T16:09:03.506Z,103111.00
2023-02-12T16:11:31.541Z,103106.88
2023-02-12T16:14:05.734Z,103109.06
2023-02-12T16:16:45.506Z,103112.81
2023-02-12T16:19:24.250Z,103107.69
2023-02-12T16:22:06.316Z,103111.72
2023-02-12T16:24:35.798Z,103107.94
2023-02-12T16:27:09.427Z,103108.56
2023-02-12T16:29:43.632Z,103116.03
2023-02-12T16:32:27.204Z,103119.31
2023-02-12T16:35:04.782Z,103113.09
2023-02-12T16:37:37.349Z,103112.56
2023-02-12T16:40:07.382Z,103107.59
2023-02-12T16:42:34.092Z,103115.66
2023-02-12T16:45:00.851Z,103112.16
2023-02-12T16:47:30.351Z,103106.69
2023-02-12T16:49:59.977Z,103110.03
2023-02-12T16:52:40.639Z,103110.34
2023-02-12T16:55:13.919Z,103116.47
2023-02-12T16:57:40.791Z,103116.38
2023-02-12T17:00:20.222Z,103122.63
2023-02-12T17:02:56.925Z,103122.06
2023-02-12T17:05:24.021Z,103114.19
2023-02-12T17:07:50.769Z,103122.22
2023-02-12T17:10:18.522Z,103120.28
2023-02-12T17:12:51.169Z,103121.41
2023-02-12T17:15:24.696Z,103127.59
2023-02-12T17:17:52.358Z,103122.38
2023-02-12T17:20:19.028Z,103119.28
2023-02-12T17:22:52.369Z,103131.00
2023-02-12T17:25:19.036Z,103137.00
2023-02-12T17:27:45.745Z,103143.66
2023-02-12T17:30:18.186Z,103139.16
2023-02-12T17:32:44.940Z,103146.78
2023-02-12T17:35:14.224Z,103143.47
2023-02-12T17:37:40.837Z,103145.63
2023-02-12T17:40:08.913Z,103148.03
2023-02-12T17:42:35.758Z,103149.03
2023-02-12T17:45:02.481Z,103146.88
2023-02-12T17:47:29.825Z,103151.63
2023-02-12T17:49:56.466Z,103157.47
2023-02-12T17:52:23.064Z,103153.19
2023-02-12T17:54:49.661Z,103155.00
2023-02-12T17:57:16.870Z,103155.00
2023-02-12T17:59:43.493Z,103156.16
2023-02-12T18:02:11.416Z,103157.72
2023-02-12T18:04:38.094Z,103168.25
2023-02-12T18:07:06.246Z,103158.22
2023-02-12T18:09:33.081Z,103161.47
2023-02-12T18:11:59.900Z,103156.69
2023-02-12T18:14:26.516Z,103156.09
2023-02-12T18:16:53.152Z,103151.59
2023-02-12T18:19:19.886Z,103156.59
2023-02-12T18:21:46.570Z,103155.28
2023-02-12T18:24:13.309Z,103155.06
2023-02-12T18:26:39.967Z,103151.00
2023-02-12T18:29:06.609Z,103144.09
2023-02-12T18:31:33.658Z,103160.28
2023-02-12T18:34:00.447Z,103159.06
2023-02-12T18:36:27.248Z,103154.91
2023-02-12T18:38:53.986Z,103142.88
2023-02-12T18:41:24.182Z,103148.09
2023-02-12T18:43:51.120Z,103151.41
2023-02-12T18:46:19.401Z,103153.13
2023-02-12T18:48:46.649Z,103150.53
2023-02-12T18:51:16.948Z,103150.44
2023-02-12T18:53:44.306Z,103149.47
2023-02-12T18:56:11.941Z,103158.16
2023-02-12T18:58:38.897Z,103158.97
2023-02-12T19:01:16.678Z,103163.53
2023-02-12T19:03:44.454Z,103154.09
2023-02-12T19:06:14.528Z,103155.00
2023-02-12T19:08:41.415Z,103151.78
2023-02-12T19:11:12.924Z,103153.50
2023-02-12T19:13:41.291Z,103149.81
2023-02-12T19:16:17.958Z,103156.47
2023-02-12T19:18:44.673Z,103148.47
2023-02-12T19:21:13.550Z,103157.69
2023-02-12T19:23:40.529Z,103148.78
2023-02-12T19:26:12.746Z,103156.91
2023-02-12T19:28:39.593Z,103160.22
2023-02-12T19:31:28.730Z,103163.09
2023-02-12T19:34:01.450Z,103161.84
2023-02-12T19:36:32.706Z,103159.16
2023-02-12T19:38:59.781Z,103165.06
2023-02-12T19:41:28.449Z,103155.56
2023-02-12T19:43:58.317Z,103156.09
2023-02-12T19:46:26.547Z,103156.75
2023-02-12T19:49:00.008Z,103157.75
2023-02-12T19:51:29.852Z,103157.91
2023-02-12T19:53:59.989Z,103159.16
2023-02-12T19:56:27.149Z,103160.69
2023-02-12T19:58:56.669Z,103156.28
2023-02-12T20:01:23.696Z,103157.75
2023-02-12T20:03:50.975Z,103157.91
2023-02-12T20:06:23.960Z,103154.50
2023-02-12T20:08:50.964Z,103153.25
2023-02-12T20:11:20.483Z,103158.28
2023-02-12T20:13:48.282Z,103152.00
2023-02-12T20:16:21.232Z,103155.88
2023-02-12T20:18:49.959Z,103160.16
2023-02-12T20:21:24.699Z,103158.38
2023-02-12T20:23:51.640Z,103154.88
2023-02-12T20:26:19.843Z,103156.38
2023-02-12T20:28:47.842Z,103165.63
2023-02-12T20:31:20.404Z,103160.97
2023-02-12T20:33:48.007Z,103164.56
2023-02-12T20:36:15.184Z,103162.94
2023-02-12T20:38:43.476Z,103162.38
2023-02-12T20:41:11.139Z,103164.38
2023-02-12T20:43:38.738Z,103157.38
2023-02-12T20:46:06.190Z,103161.88
2023-02-12T20:48:32.950Z,103159.09
2023-02-12T20:51:06.962Z,103156.06
2023-02-12T20:53:34.945Z,103156.47
2023-02-12T20:56:04.929Z,103163.09
2023-02-12T20:58:31.668Z,103155.88
2023-02-12T21:01:09.901Z,103154.53
2023-02-12T21:03:37.103Z,103158.09
2023-02-12T21:06:04.278Z,103155.78
2023-02-12T21:08:31.389Z,103158.56
2023-02-12T21:11:02.997Z,103156.84
2023-02-12T21:13:29.745Z,103154.41
2023-02-12T21:16:09.048Z,103157.00
2023-02-12T21:18:35.898Z,103146.47
2023-02-12T21:21:05.652Z,103146.72
2023-02-12T21:23:33.901Z,103151.00
2023-02-12T21:26:10.581Z,103145.56
2023-02-12T21:28:37.661Z,103139.38
2023-02-12T21:31:09.381Z,103150.78
2023-02-12T21:33:37.487Z,103145.75
2023-02-12T21:36:06.753Z,103151.19
2023-02-12T21:38:35.232Z,103150.38
2023-02-12T21:41:15.411Z,103148.16
2023-02-12T21:43:44.454Z,103153.47
2023-02-12T21:46:11.459Z,103152.91
2023-02-12T21:48:41.725Z,103157.03
2023-02-12T21:51:35.907Z,103155.34
2023-02-12T21:54:05.655Z,103151.28
2023-02-12T21:56:32.666Z,103156.47
2023-02-12T21:58:59.731Z,103154.53
2023-02-12T22:01:29.509Z,103149.50
2023-02-12T22:03:56.093Z,103146.38
2023-02-12T22:06:24.877Z,103140.00
2023-02-12T22:08:56.093Z,103143.97
2023-02-12T22:11:23.852Z,103149.34
2023-02-12T22:13:50.444Z,103145.38
2023-02-12T22:16:18.613Z,103144.50
2023-02-12T22:18:46.243Z,103141.78
2023-02-12T22:21:14.808Z,103142.69
2023-02-12T22:23:42.868Z,103141.78
2023-02-12T22:26:15.708Z,103145.38
2023-02-12T22:28:47.900Z,103154.16
2023-02-12T22:31:19.542Z,103144.88
2023-02-12T22:33:47.911Z,103145.00
2023-02-12T22:36:14.991Z,103139.38
2023-02-12T22:38:41.879Z,103147.44
2023-02-12T22:41:09.277Z,103145.13
2023-02-12T22:43:38.458Z,103135.88
2023-02-12T22:46:06.060Z,103145.03
2023-02-12T22:48:32.711Z,103140.47
2023-02-12T22:50:59.550Z,103141.47
2023-02-12T22:53:26.457Z,103136.69
2023-02-12T22:55:53.130Z,103147.72
2023-02-12T22:58:19.751Z,103146.28
2023-02-12T23:00:46.418Z,103137.34
2023-02-12T23:03:13.038Z,103142.53
2023-02-12T23:05:39.640Z,103145.38
2023-02-12T23:08:06.767Z,103143.41
2023-02-12T23:10:33.794Z,103139.66
2023-02-12T23:13:02.427Z,103137.25
2023-02-12T23:15:30.114Z,103129.09
2023-02-12T23:17:56.749Z,103130.53
2023-02-12T23:20:23.625Z,103125.41
2023-02-12T23:22:50.419Z,103125.06
2023-02-12T23:25:17.147Z,103127.56
2023-02-12T23:27:43.776Z,103122.28
2023-02-12T23:30:10.930Z,103120.31
2023-02-12T23:32:37.477Z,103115.50
2023-02-12T23:35:04.371Z,103108.22
2023-02-12T23:37:30.975Z,103110.81
2023-02-12T23:39:57.591Z,103118.88
2023-02-12T23:42:24.191Z,103120.56
2023-02-12T23:44:50.771Z,103117.44
2023-02-12T23:47:17.377Z,103117.44
2023-02-12T23:49:44.168Z,103110.47
2023-02-12T23:52:10.731Z,103115.66
2023-02-12T23:54:37.424Z,103114.09
2023-02-12T23:57:04.124Z,103105.97
2023-02-12T23:59:30.876Z,103119.13
